Time;durP1;ratioP1;P1;durP2;ratioP2;P2;SDS_P1;SDS_P2;PMS_P1;PMS_P2;Temp;Humidity;BMP_temperature;BMP_pressure;BME280_temperature;BME280_humidity;BME280_pressure;Samples;Min_cycle;Max_cycle;Signal;HPM_P1;HPM_P2
2020/12/31 00:01:35;;;;;;;17.80;4.23;;;;;;;8.55;100.00;94080.63;10530491;28;20032;-73
2020/12/31 00:06:35;;;;;;;17.67;4.80;;;;;;;8.43;100.00;94076.59;10530415;28;20073;-73
2020/12/31 00:11:36;;;;;;;20.35;4.70;;;;;;;8.44;100.00;94070.19;10530417;28;20270;-73
2020/12/31 00:16:36;;;;;;;8.97;3.03;;;;;;;8.45;100.00;94051.19;10530334;28;20035;-73
2020/12/31 00:21:36;;;;;;;15.53;3.00;;;;;;;8.48;100.00;94071.28;10530068;28;20052;-73
2020/12/31 00:26:37;;;;;;;14.97;3.23;;;;;;;8.41;100.00;94049.31;10530728;28;20285;-73
2020/12/31 00:31:37;;;;;;;20.23;4.33;;;;;;;8.28;100.00;94061.44;10530394;28;20369;-73
2020/12/31 00:36:37;;;;;;;9.57;2.60;;;;;;;8.34;100.00;94049.63;10527545;28;20020;-73
2020/12/31 00:41:38;;;;;;;13.80;3.30;;;;;;;8.29;100.00;94065.69;10529911;28;20478;-73
2020/12/31 00:46:38;;;;;;;14.87;4.10;;;;;;;8.28;100.00;94067.59;10492172;28;20479;-73
2020/12/31 00:51:39;;;;;;;12.73;4.03;;;;;;;8.12;100.00;94074.06;10512751;28;20371;-73
2020/12/31 00:56:39;;;;;;;11.90;4.55;;;;;;;7.85;100.00;94049.28;10529328;28;20270;-74
2020/12/31 01:01:39;;;;;;;12.00;2.67;;;;;;;7.91;100.00;94014.50;10513777;28;20032;-74
2020/12/31 01:06:40;;;;;;;8.88;2.92;;;;;;;7.96;100.00;94012.59;10487446;28;20334;-73
2020/12/31 01:11:40;;;;;;;22.03;4.07;;;;;;;7.98;100.00;93999.75;10490391;28;20491;-73
2020/12/31 01:16:47;;;;;;;10.68;3.33;;;;;;;7.99;100.00;94006.69;10496091;28;20028;-73
2020/12/31 01:21:47;;;;;;;20.90;3.10;;;;;;;8.01;100.00;93991.16;10495233;28;20053;-73
2020/12/31 01:26:48;;;;;;;14.67;2.90;;;;;;;8.08;100.00;93982.84;10495210;28;20029;-73
2020/12/31 01:31:48;;;;;;;21.13;4.67;;;;;;;8.00;100.00;93997.59;10533935;28;20120;-73
2020/12/31 01:36:53;;;;;;;12.88;3.85;;;;;;;8.06;100.00;94010.94;10536731;28;20082;-73
2020/12/31 01:41:54;;;;;;;8.85;2.67;;;;;;;8.09;100.00;94016.53;10532173;28;20063;-73
2020/12/31 01:46:59;;;;;;;11.80;3.38;;;;;;;8.10;100.00;94012.78;10494259;28;20078;-74
2020/12/31 01:52:01;;;;;;;15.93;3.08;;;;;;;8.07;100.00;93993.84;10504763;28;20487;-73
2020/12/31 01:57:01;;;;;;;20.38;3.35;;;;;;;8.01;100.00;93996.53;10494430;28;20036;-73
2020/12/31 02:02:02;;;;;;;12.98;2.97;;;;;;;7.72;100.00;93999.06;10496083;28;20039;-74
2020/12/31 02:07:02;;;;;;;12.25;3.72;;;;;;;7.84;100.00;93985.34;10535667;28;20028;-74
2020/12/31 02:12:04;;;;;;;15.68;4.00;;;;;;;7.64;100.00;94005.75;10535280;28;20065;-73
2020/12/31 02:17:05;;;;;;;26.42;3.60;;;;;;;7.63;100.00;93988.13;10535022;28;20205;-73
2020/12/31 02:22:05;;;;;;;13.17;3.53;;;;;;;7.75;100.00;93987.00;10534975;28;20406;-73
2020/12/31 02:27:06;;;;;;;13.43;4.23;;;;;;;7.78;100.00;93983.78;10535064;28;20286;-73
2020/12/31 02:32:06;;;;;;;12.70;4.13;;;;;;;7.58;100.00;93985.47;10516672;28;20361;-73
2020/12/31 02:37:06;;;;;;;14.15;3.78;;;;;;;7.40;100.00;93964.66;10496186;28;20020;-73
2020/12/31 02:42:07;;;;;;;17.20;3.80;;;;;;;7.40;100.00;93941.41;10474550;28;20024;-73
2020/12/31 02:47:07;;;;;;;14.43;3.60;;;;;;;7.11;100.00;93949.22;10491802;28;20921;-73
2020/12/31 02:52:07;;;;;;;20.40;4.53;;;;;;;7.07;100.00;93935.59;10491880;28;20163;-73
2020/12/31 02:57:08;;;;;;;11.50;4.33;;;;;;;7.12;100.00;93937.47;10492008;28;20029;-73
2020/12/31 03:02:08;;;;;;;11.83;3.30;;;;;;;7.03;100.00;93933.75;10491721;28;20028;-73
2020/12/31 03:07:09;;;;;;;13.70;3.97;;;;;;;6.90;100.00;93925.22;10473433;28;20055;-73
2020/12/31 03:12:09;;;;;;;20.13;4.20;;;;;;;6.70;100.00;93918.03;10491649;28;20391;-73
2020/12/31 03:17:10;;;;;;;13.70;3.78;;;;;;;6.61;100.00;93917.75;10487983;28;20051;-73
2020/12/31 03:22:10;;;;;;;14.65;3.33;;;;;;;6.67;100.00;93921.25;10449086;28;20037;-73
2020/12/31 03:27:10;;;;;;;12.73;3.70;;;;;;;6.80;100.00;93923.38;10448749;28;20033;-73
2020/12/31 03:32:11;;;;;;;13.60;3.37;;;;;;;6.69;100.00;93919.09;10435998;28;20056;-85
2020/12/31 03:37:12;;;;;;;19.23;4.60;;;;;;;6.60;100.00;93913.50;10455962;28;20025;-84
2020/12/31 03:42:12;;;;;;;15.45;3.53;;;;;;;6.47;100.00;93916.72;10434865;28;20086;-82
2020/12/31 03:47:14;;;;;;;14.15;4.32;;;;;;;6.57;100.00;93907.91;10449219;28;20021;-82
2020/12/31 03:52:15;;;;;;;12.93;3.85;;;;;;;6.53;100.00;93907.66;10466259;28;20412;-83
2020/12/31 03:57:15;;;;;;;16.53;4.63;;;;;;;6.36;100.00;93912.44;10495094;28;20108;-85
2020/12/31 04:02:15;;;;;;;14.20;3.50;;;;;;;6.50;100.00;93900.97;10495701;28;20033;-81
2020/12/31 04:07:16;;;;;;;24.20;4.13;;;;;;;6.57;100.00;93890.03;10534028;28;20376;-83
2020/12/31 04:12:17;;;;;;;23.77;7.30;;;;;;;6.72;100.00;93880.38;10501791;28;20277;-73
2020/12/31 04:17:17;;;;;;;10.23;4.20;;;;;;;6.90;100.00;93879.03;10490093;28;20112;-73
2020/12/31 04:22:18;;;;;;;8.02;3.42;;;;;;;7.01;100.00;93893.94;10512224;28;20043;-72
2020/12/31 04:27:20;;;;;;;8.98;3.85;;;;;;;7.00;100.00;93890.50;10530487;28;20094;-72
2020/12/31 04:32:20;;;;;;;14.38;4.38;;;;;;;7.03;100.00;93896.34;10530075;28;20050;-73
2020/12/31 04:37:21;;;;;;;12.37;3.60;;;;;;;7.05;100.00;93889.66;10530246;28;20023;-73
2020/12/31 04:42:21;;;;;;;18.52;4.13;;;;;;;7.08;100.00;93880.31;10529922;28;20040;-73
2020/12/31 04:47:22;;;;;;;18.10;3.47;;;;;;;6.97;100.00;93883.00;10529531;28;20040;-73
2020/12/31 04:52:23;;;;;;;13.48;3.83;;;;;;;7.00;100.00;93881.66;10529813;28;20311;-73
2020/12/31 04:57:23;;;;;;;16.05;5.20;;;;;;;6.90;100.00;93876.34;10529632;28;20380;-72
2020/12/31 05:02:24;;;;;;;18.77;3.77;;;;;;;6.94;100.00;93880.88;10529718;28;20024;-72
2020/12/31 05:07:24;;;;;;;13.43;3.77;;;;;;;7.01;100.00;93886.72;10529375;28;20147;-72
2020/12/31 05:12:28;;;;;;;14.52;3.65;;;;;;;6.91;100.00;93883.31;10529253;28;20028;-72
2020/12/31 05:17:29;;;;;;;20.63;4.72;;;;;;;6.86;100.00;93881.41;10529369;28;20479;-72
2020/12/31 05:22:30;;;;;;;24.63;4.95;;;;;;;6.99;100.00;93888.88;10529026;28;20071;-72
2020/12/31 05:27:30;;;;;;;8.23;4.53;;;;;;;7.05;100.00;93892.34;10528269;28;20134;-72
2020/12/31 05:32:34;;;;;;;13.43;4.78;;;;;;;7.02;100.00;93890.22;10529207;28;20449;-72
2020/12/31 05:37:34;;;;;;;13.43;4.20;;;;;;;7.11;100.00;93895.78;10529346;28;20028;-74
2020/12/31 05:42:43;;;;;;;26.87;7.20;;;;;;;7.20;100.00;93899.50;10528818;28;20031;-72
2020/12/31 05:47:50;;;;;;;16.10;6.60;;;;;;;7.17;100.00;93916.88;10528127;28;20027;-73
2020/12/31 05:52:52;;;;;;;15.20;5.10;;;;;;;7.12;100.00;93921.44;10529547;28;20089;-73
2020/12/31 05:57:56;;;;;;;16.98;5.93;;;;;;;7.06;100.00;93898.47;10513570;28;20028;-73
2020/12/31 06:03:00;;;;;;;31.38;6.32;;;;;;;7.01;100.00;93901.97;10536330;28;20036;-73
2020/12/31 06:08:04;;;;;;;36.17;8.63;;;;;;;7.17;100.00;93900.03;10536062;28;20028;-73
2020/12/31 06:13:05;;;;;;;23.25;6.35;;;;;;;7.10;100.00;93912.88;10535956;28;20028;-74
2020/12/31 06:18:06;;;;;;;27.52;6.57;;;;;;;7.31;100.00;93917.13;10535461;28;20052;-74
2020/12/31 06:23:12;;;;;;;17.00;6.40;;;;;;;7.50;100.00;93919.19;10534639;28;20063;-74
2020/12/31 06:28:23;;;;;;;24.92;7.82;;;;;;;7.69;100.00;93912.13;10534771;28;20028;-74
2020/12/31 06:33:30;;;;;;;27.02;7.03;;;;;;;8.02;100.00;93901.78;10534941;28;20580;-74
2020/12/31 06:38:36;;;;;;;23.80;7.32;;;;;;;8.42;100.00;93912.47;10500832;28;20026;-74
2020/12/31 06:43:38;;;;;;;25.20;6.60;;;;;;;8.51;100.00;93912.72;10533304;28;20043;-74
2020/12/31 06:48:39;;;;;;;24.35;9.35;;;;;;;8.21;100.00;93919.88;10534070;28;20107;-73
2020/12/31 06:53:46;;;;;;;30.45;7.57;;;;;;;8.65;100.00;93924.41;10533763;28;20036;-74
2020/12/31 06:58:46;;;;;;;22.48;10.38;;;;;;;8.86;100.00;93934.91;10533641;28;20032;-74
2020/12/31 07:03:47;;;;;;;25.90;7.13;;;;;;;8.86;100.00;93954.50;10533153;28;20028;-74
2020/12/31 07:08:52;;;;;;;33.63;8.23;;;;;;;8.89;100.00;93963.84;10500601;28;20040;-74
2020/12/31 07:13:52;;;;;;;26.23;8.52;;;;;;;8.85;100.00;93962.81;10474342;28;20043;-74
2020/12/31 07:18:55;;;;;;;28.40;8.30;;;;;;;8.80;100.00;93965.53;10476693;28;20052;-73
2020/12/31 07:23:55;;;;;;;17.50;6.70;;;;;;;8.52;100.00;93967.88;10472913;28;20089;-74
2020/12/31 07:28:56;;;;;;;20.07;9.23;;;;;;;8.22;100.00;93977.69;10489677;28;20028;-74
2020/12/31 07:34:26;;;;;;;23.10;6.37;;;;;;;7.60;100.00;93982.50;10490670;28;20028;-73
2020/12/31 07:39:27;;;;;;;28.00;8.00;;;;;;;7.63;100.00;93982.78;10518785;28;20780;-73
2020/12/31 07:44:28;;;;;;;32.42;9.68;;;;;;;7.48;100.00;94001.50;10529010;28;20040;-74
2020/12/31 07:49:28;;;;;;;25.85;7.82;;;;;;;7.15;100.00;93993.84;10498327;28;20033;-74
2020/12/31 07:54:29;;;;;;;23.17;9.20;;;;;;;6.77;100.00;94009.38;10489072;28;20118;-74
2020/12/31 07:59:29;;;;;;;31.37;10.83;;;;;;;6.65;100.00;94011.50;10529784;28;20047;-73
2020/12/31 08:04:29;;;;;;;33.42;10.82;;;;;;;6.57;100.00;94020.03;10528496;28;20292;-74
2020/12/31 08:09:30;;;;;;;28.57;10.80;;;;;;;6.74;100.00;93993.88;10487434;28;20040;-74
2020/12/31 08:14:44;;;;;;;20.53;9.50;;;;;;;6.87;100.00;93997.88;10487622;28;20867;-73
2020/12/31 08:19:45;;;;;;;17.85;6.20;;;;;;;6.94;100.00;94013.63;10487510;28;20374;-73
2020/12/31 08:24:57;;;;;;;24.35;7.72;;;;;;;7.07;100.00;94001.59;10487097;28;20037;-73
2020/12/31 08:29:59;;;;;;;27.63;9.02;;;;;;;7.31;100.00;93978.59;10487484;28;20111;-73
2020/12/31 08:35:01;;;;;;;28.17;9.20;;;;;;;7.84;100.00;93975.47;10517225;28;20483;-73
2020/12/31 08:40:02;;;;;;;22.35;8.50;;;;;;;8.01;100.00;93983.13;10528474;28;20035;-75
2020/12/31 08:45:02;;;;;;;29.02;9.20;;;;;;;7.77;100.00;93993.69;10529076;28;20487;-75
2020/12/31 08:50:02;;;;;;;28.15;10.93;;;;;;;7.32;100.00;94009.56;10528921;28;20036;-74
2020/12/31 08:55:11;;;;;;;24.75;13.10;;;;;;;7.61;100.00;94002.84;10527907;28;20024;-74
2020/12/31 09:00:12;;;;;;;36.05;14.35;;;;;;;7.13;100.00;93985.31;10528617;28;20036;-79
2020/12/31 09:05:17;;;;;;;30.17;14.27;;;;;;;7.33;100.00;93983.66;10519408;28;20039;-77
2020/12/31 09:10:18;;;;;;;30.55;11.75;;;;;;;6.94;100.00;94001.06;10528120;28;20166;-75
2020/12/31 09:15:20;;;;;;;35.28;13.27;;;;;;;6.63;100.00;94014.44;10526264;28;20064;-74
2020/12/31 09:20:26;;;;;;;33.97;13.25;;;;;;;6.80;100.00;94016.03;10527381;28;20063;-75
2020/12/31 09:25:26;;;;;;;34.20;14.63;;;;;;;7.21;100.00;93983.94;10529816;28;20024;-78
2020/12/31 09:30:30;;;;;;;25.15;11.32;;;;;;;7.45;100.00;93994.88;10529915;28;20031;-78
2020/12/31 09:35:31;;;;;;;32.67;13.65;;;;;;;7.51;100.00;93950.97;10537311;28;20816;-79
2020/12/31 09:40:31;;;;;;;29.43;11.97;;;;;;;7.83;100.00;93957.81;10537913;28;20031;-79
2020/12/31 09:45:32;;;;;;;14.70;9.13;;;;;;;8.09;100.00;93941.59;10505567;28;20032;-78
2020/12/31 09:50:32;;;;;;;23.42;9.63;;;;;;;8.58;100.00;93926.56;10502531;28;20043;-78
2020/12/31 09:55:33;;;;;;;28.98;9.23;;;;;;;9.16;100.00;93916.97;10498116;28;20017;-79
2020/12/31 10:00:33;;;;;;;24.13;10.20;;;;;;;9.89;100.00;93915.84;10535694;28;20103;-80
2020/12/31 10:05:34;;;;;;;25.53;7.70;;;;;;;11.18;100.00;93899.63;10537191;28;20016;-79
2020/12/31 10:10:34;;;;;;;23.67;8.27;;;;;;;12.85;100.00;93889.31;10535534;28;20988;-74
2020/12/31 10:15:34;;;;;;;12.50;5.53;;;;;;;14.74;100.00;93857.22;10534128;28;20027;-73
2020/12/31 10:20:35;;;;;;;15.47;5.43;;;;;;;16.49;100.00;93840.09;10514078;28;20134;-74
2020/12/31 10:25:35;;;;;;;11.83;4.57;;;;;;;16.70;99.43;93856.38;10503909;28;20298;-74
2020/12/31 10:30:35;;;;;;;20.37;10.37;;;;;;;15.56;100.00;93861.75;10502560;28;20028;-74
2020/12/31 10:35:36;;;;;;;21.60;7.57;;;;;;;14.31;100.00;93861.50;10505796;28;20024;-74
2020/12/31 10:40:36;;;;;;;20.03;6.80;;;;;;;13.18;100.00;93859.31;10533638;28;20039;-73
2020/12/31 10:45:36;;;;;;;16.57;5.90;;;;;;;12.95;100.00;93855.91;10538065;28;20380;-73
2020/12/31 10:50:37;;;;;;;18.93;5.37;;;;;;;12.79;100.00;93856.28;10523410;28;20032;-73
2020/12/31 10:55:37;;;;;;;17.93;6.33;;;;;;;13.27;100.00;93840.47;10509599;28;20028;-73
2020/12/31 11:00:37;;;;;;;13.80;6.00;;;;;;;13.77;100.00;93842.06;10495122;28;20028;-73
2020/12/31 11:05:38;;;;;;;13.87;5.33;;;;;;;14.47;100.00;93831.28;10502051;28;20864;-73
2020/12/31 11:10:39;;;;;;;8.60;4.30;;;;;;;14.99;100.00;93842.03;10511960;28;20335;-74
2020/12/31 11:15:40;;;;;;;9.85;2.85;;;;;;;15.42;72.79;93824.06;10531713;28;20027;-74
2020/12/31 11:20:40;;;;;;;7.50;2.75;;;;;;;15.01;66.24;93829.00;10505443;28;20056;-74
2020/12/31 11:25:40;;;;;;;4.80;2.30;;;;;;;14.62;74.32;93822.69;10498155;28;20032;-73
2020/12/31 11:30:43;;;;;;;7.80;3.03;;;;;;;14.07;73.41;93823.38;10501676;28;20039;-73
2020/12/31 11:35:44;;;;;;;8.27;1.27;;;;;;;12.42;58.23;93822.41;10530535;28;20035;-73
2020/12/31 11:40:44;;;;;;;4.43;1.05;;;;;;;11.71;59.28;93799.53;10521554;28;20029;-73
2020/12/31 11:45:45;;;;;;;5.75;1.63;;;;;;;11.39;65.08;93779.75;10502239;28;20120;-75
2020/12/31 11:50:45;;;;;;;7.45;1.77;;;;;;;11.38;59.12;93782.75;10484653;28;20115;-73
2020/12/31 11:55:49;;;;;;;10.07;1.35;;;;;;;11.86;65.12;93805.66;10500895;28;20066;-74
2020/12/31 12:00:50;;;;;;;7.50;2.28;;;;;;;12.35;66.96;93805.91;10554001;28;20810;-74
2020/12/31 12:05:51;;;;;;;4.00;1.20;;;;;;;12.55;55.48;93821.56;10562910;28;20028;-74
2020/12/31 12:10:51;;;;;;;2.70;1.20;;;;;;;12.52;54.89;93810.63;10524496;28;20058;-74
2020/12/31 12:15:51;;;;;;;7.20;1.65;;;;;;;12.77;52.71;93815.34;10506655;28;20024;-74
2020/12/31 12:20:52;;;;;;;5.78;1.95;;;;;;;13.13;56.58;93814.41;10523311;28;20102;-73
2020/12/31 12:25:52;;;;;;;5.45;1.48;;;;;;;13.37;54.29;93802.44;10520545;28;20043;-73
2020/12/31 12:30:53;;;;;;;3.63;1.10;;;;;;;13.53;49.91;93812.81;10519088;28;20097;-74
2020/12/31 12:35:53;;;;;;;7.37;1.23;;;;;;;13.61;49.70;93810.13;10502927;28;20028;-73
2020/12/31 12:40:54;;;;;;;3.73;0.90;;;;;;;13.47;47.16;93804.06;10523704;28;20489;-73
2020/12/31 12:45:54;;;;;;;7.72;1.10;;;;;;;13.83;48.40;93798.41;10506221;28;20320;-74
2020/12/31 12:50:54;;;;;;;4.73;1.43;;;;;;;13.49;48.96;93796.44;10523086;28;20514;-74
2020/12/31 12:55:55;;;;;;;6.37;1.37;;;;;;;13.21;49.14;93806.66;10523218;28;20089;-74
2020/12/31 13:00:56;;;;;;;2.80;0.80;;;;;;;13.11;49.37;93811.22;10524033;28;20031;-74
2020/12/31 13:05:56;;;;;;;3.22;1.02;;;;;;;13.10;50.43;93809.66;10523672;28;20085;-74
2020/12/31 13:10:57;;;;;;;3.38;1.08;;;;;;;12.90;50.71;93813.66;10532138;28;20089;-75
2020/12/31 13:15:57;;;;;;;6.50;1.00;;;;;;;13.05;49.67;93817.88;10532727;28;20020;-75
2020/12/31 13:20:58;;;;;;;13.70;1.58;;;;;;;12.84;50.93;93828.41;10532509;28;20294;-75
2020/12/31 13:25:59;;;;;;;5.60;1.60;;;;;;;12.74;52.23;93828.66;10513719;28;20035;-75
2020/12/31 13:30:59;;;;;;;4.38;0.85;;;;;;;12.46;54.66;93828.78;10533088;28;20475;-75
2020/12/31 13:36:01;;;;;;;5.20;1.40;;;;;;;12.19;54.82;93835.91;10532214;28;20032;-74
2020/12/31 13:41:01;;;;;;;5.93;2.03;;;;;;;12.17;55.59;93842.69;10532916;28;20062;-75
2020/12/31 13:46:01;;;;;;;2.40;1.00;;;;;;;12.18;55.64;93850.50;10532133;28;20328;-75
2020/12/31 13:51:02;;;;;;;3.03;0.80;;;;;;;12.02;54.88;93850.03;10531769;28;20282;-74
2020/12/31 13:56:02;;;;;;;2.03;1.02;;;;;;;11.87;56.02;93850.34;10531602;28;20102;-74
2020/12/31 14:01:03;;;;;;;2.53;1.30;;;;;;;11.77;56.76;93841.38;10532092;28;20459;-75
2020/12/31 14:06:03;;;;;;;8.63;1.98;;;;;;;11.67;60.70;93854.28;10513275;28;20016;-75
2020/12/31 14:11:04;;;;;;;5.85;1.50;;;;;;;11.65;56.91;93851.84;10529395;28;20024;-75
2020/12/31 14:16:05;;;;;;;3.58;1.25;;;;;;;11.67;58.72;93849.69;10531346;28;20032;-75
2020/12/31 14:21:05;;;;;;;5.88;1.45;;;;;;;11.50;57.56;93852.19;10530134;28;20056;-75
2020/12/31 14:26:06;;;;;;;3.53;1.30;;;;;;;11.42;57.62;93859.84;10527408;28;20028;-75
2020/12/31 14:31:06;;;;;;;5.35;1.30;;;;;;;11.28;60.29;93854.47;10528897;28;20282;-75
2020/12/31 14:36:07;;;;;;;2.43;0.70;;;;;;;11.05;59.85;93858.16;10527847;28;20023;-75
2020/12/31 14:41:07;;;;;;;3.55;0.90;;;;;;;10.99;58.80;93854.75;10528585;28;20343;-75
2020/12/31 14:46:07;;;;;;;3.20;1.30;;;;;;;10.90;61.48;93860.03;10527640;28;20054;-75
2020/12/31 14:51:08;;;;;;;1.93;1.00;;;;;;;10.93;54.54;93864.03;10527856;28;20056;-75
2020/12/31 14:56:13;;;;;;;4.30;1.20;;;;;;;10.94;55.61;93868.31;10508823;28;20020;-74
2020/12/31 15:01:17;;;;;;;3.25;1.08;;;;;;;10.82;57.65;93868.00;10516506;28;20032;-74
2020/12/31 15:06:17;;;;;;;6.20;1.70;;;;;;;10.67;59.53;93872.53;10505982;28;20410;-75
2020/12/31 15:11:19;;;;;;;2.33;2.13;;;;;;;10.67;62.76;93867.16;10505354;28;20027;-72
2020/12/31 15:16:20;;;;;;;7.55;1.10;;;;;;;10.66;64.78;93872.81;10528604;28;20063;-74
2020/12/31 15:21:20;;;;;;;6.23;1.83;;;;;;;10.62;66.00;93874.50;10528505;28;20155;-75
2020/12/31 15:26:22;;;;;;;3.72;1.75;;;;;;;10.52;66.44;93864.72;10527401;28;20313;-74
2020/12/31 15:31:22;;;;;;;3.10;1.70;;;;;;;10.48;68.56;93861.03;10526433;28;20502;-75
2020/12/31 15:36:26;;;;;;;5.07;2.03;;;;;;;10.42;68.38;93858.44;10528100;28;20032;-74
2020/12/31 15:41:26;;;;;;;5.15;1.70;;;;;;;10.37;69.87;93866.56;10527160;28;20388;-74
2020/12/31 15:46:27;;;;;;;7.10;3.50;;;;;;;10.34;70.21;93866.31;10526882;28;20028;-74
2020/12/31 15:51:36;;;;;;;9.18;2.00;;;;;;;10.30;72.00;93863.44;10527399;28;20027;-74
2020/12/31 15:56:36;;;;;;;5.30;1.95;;;;;;;10.24;74.01;93886.88;10527265;28;20020;-74
2020/12/31 16:01:37;;;;;;;10.17;1.70;;;;;;;10.23;74.26;93889.88;10526078;28;20805;-74
2020/12/31 16:06:38;;;;;;;9.40;2.30;;;;;;;10.19;78.46;93903.06;10526821;28;20301;-74
2020/12/31 16:11:39;;;;;;;4.90;1.80;;;;;;;10.05;81.40;93903.00;10526499;28;20446;-74
2020/12/31 16:16:39;;;;;;;4.03;2.53;;;;;;;9.93;82.97;93905.31;10494462;28;20025;-74
2020/12/31 16:21:39;;;;;;;7.60;2.10;;;;;;;9.80;82.84;93914.09;10516786;28;20101;-74
2020/12/31 16:26:40;;;;;;;3.83;1.90;;;;;;;9.69;88.38;93911.50;10525124;28;20097;-76
2020/12/31 16:31:40;;;;;;;6.70;2.22;;;;;;;9.51;91.14;93931.06;10524859;28;20028;-76
2020/12/31 16:36:40;;;;;;;8.87;3.30;;;;;;;9.27;95.13;93926.50;10524854;28;20024;-76
2020/12/31 16:41:41;;;;;;;6.78;2.20;;;;;;;9.24;91.35;93927.06;10525104;28;20028;-76
2020/12/31 16:46:41;;;;;;;3.80;1.87;;;;;;;9.40;86.50;93923.13;10522355;28;20051;-76
2020/12/31 16:51:41;;;;;;;4.10;1.90;;;;;;;9.47;84.77;93932.72;10522006;28;20020;-76
2020/12/31 16:56:42;;;;;;;4.80;1.20;;;;;;;9.63;81.40;93933.31;10522133;28;20023;-76
2020/12/31 17:01:42;;;;;;;1.98;1.20;;;;;;;9.69;81.66;93942.91;10520620;28;20062;-76
2020/12/31 17:06:46;;;;;;;5.43;2.17;;;;;;;9.67;89.25;93961.16;10520048;28;20024;-77
2020/12/31 17:11:47;;;;;;;6.47;2.35;;;;;;;9.48;88.83;93961.13;10521904;28;20293;-77
2020/12/31 17:16:48;;;;;;;5.80;1.83;;;;;;;9.39;87.48;93977.03;10515679;28;20056;-77
2020/12/31 17:21:50;;;;;;;5.93;1.77;;;;;;;9.35;89.26;93982.19;10516148;28;20050;-79
2020/12/31 17:26:50;;;;;;;20.55;8.50;;;;;;;9.18;93.11;93981.78;10519570;28;20058;-77
2020/12/31 17:31:51;;;;;;;5.90;2.70;;;;;;;9.15;92.32;93988.50;10503608;28;20387;-77
2020/12/31 17:36:51;;;;;;;4.65;2.10;;;;;;;9.04;99.07;93998.56;10503336;28;20024;-77
2020/12/31 17:41:51;;;;;;;5.87;2.47;;;;;;;8.94;99.19;94000.50;10522074;28;20106;-77
2020/12/31 17:46:52;;;;;;;8.00;2.40;;;;;;;8.95;99.29;94007.47;10521075;28;20342;-77
2020/12/31 17:51:53;;;;;;;5.47;3.13;;;;;;;9.04;96.14;93998.56;10515702;28;20274;-78
2020/12/31 17:56:53;;;;;;;7.95;3.42;;;;;;;8.89;100.00;94014.75;10526703;28;20024;-77
2020/12/31 18:01:58;;;;;;;6.15;3.03;;;;;;;8.67;100.00;94020.53;10528798;28;20055;-77
2020/12/31 18:06:58;;;;;;;5.95;2.60;;;;;;;8.27;100.00;94017.78;10515577;28;20115;-77
2020/12/31 18:11:58;;;;;;;2.97;1.63;;;;;;;7.75;100.00;94025.25;10531389;28;20596;-77
2020/12/31 18:16:59;;;;;;;3.60;1.95;;;;;;;7.55;100.00;94034.13;10524345;28;20419;-77
2020/12/31 18:21:59;;;;;;;6.37;2.97;;;;;;;7.53;100.00;94022.91;10530525;28;20074;-77
2020/12/31 18:27:01;;;;;;;4.67;2.33;;;;;;;7.70;100.00;94020.72;10499780;28;20836;-77
2020/12/31 18:32:01;;;;;;;5.63;2.80;;;;;;;7.64;100.00;94029.81;10511479;28;20034;-78
2020/12/31 18:37:08;;;;;;;7.30;3.22;;;;;;;7.73;100.00;94027.41;10478190;28;20031;-77
2020/12/31 18:42:08;;;;;;;5.00;1.77;;;;;;;7.84;100.00;94041.53;10500640;28;20410;-76
2020/12/31 18:47:10;;;;;;;6.40;2.33;;;;;;;7.90;100.00;94036.97;10496996;28;20031;-76
2020/12/31 18:52:15;;;;;;;5.80;3.13;;;;;;;7.67;100.00;94045.34;10486903;28;20360;-75
2020/12/31 18:57:19;;;;;;;6.18;3.35;;;;;;;7.52;100.00;94056.88;10488373;28;20032;-75
2020/12/31 19:02:19;;;;;;;5.53;3.35;;;;;;;7.50;100.00;94060.88;10487739;28;20108;-74
2020/12/31 19:07:20;;;;;;;8.17;3.63;;;;;;;7.58;100.00;94054.19;10527339;28;20032;-76
2020/12/31 19:12:20;;;;;;;6.10;2.30;;;;;;;7.70;100.00;94054.66;10523745;28;20056;-76
2020/12/31 19:17:21;;;;;;;4.87;3.13;;;;;;;7.92;100.00;94064.25;10494618;28;20363;-73
2020/12/31 19:22:22;;;;;;;12.65;4.85;;;;;;;8.09;100.00;94069.28;10525049;28;20439;-74
2020/12/31 19:27:22;;;;;;;39.40;20.63;;;;;;;8.15;100.00;94073.53;10524573;28;20025;-74
2020/12/31 19:32:23;;;;;;;5.57;3.27;;;;;;;8.19;100.00;94078.06;10503534;28;20043;-75
2020/12/31 19:37:24;;;;;;;53.47;29.90;;;;;;;8.27;100.00;94081.25;10502910;28;20286;-75
2020/12/31 19:42:25;;;;;;;6.60;3.65;;;;;;;8.33;100.00;94085.50;10518656;28;20028;-75
2020/12/31 19:47:27;;;;;;;5.10;3.17;;;;;;;8.12;100.00;94090.13;10527813;28;20036;-75
2020/12/31 19:52:27;;;;;;;11.63;4.47;;;;;;;8.18;98.81;94089.84;10484756;28;20033;-75
2020/12/31 19:57:28;;;;;;;5.77;3.13;;;;;;;8.13;99.06;94100.56;10502676;28;20028;-75
2020/12/31 20:02:28;;;;;;;11.05;5.18;;;;;;;8.18;100.00;94094.41;10467335;28;20113;-75
2020/12/31 20:07:28;;;;;;;14.63;6.27;;;;;;;8.17;100.00;94106.19;10484498;28;20037;-74
2020/12/31 20:12:29;;;;;;;14.87;6.00;;;;;;;7.97;100.00;94110.53;10499758;28;20023;-74
2020/12/31 20:17:29;;;;;;;13.88;7.50;;;;;;;7.98;100.00;94117.50;10515361;28;20043;-74
2020/12/31 20:22:30;;;;;;;9.38;4.60;;;;;;;7.90;100.00;94118.03;10524465;28;20032;-75
2020/12/31 20:27:30;;;;;;;12.57;6.27;;;;;;;7.86;100.00;94135.69;10526768;28;20429;-75
2020/12/31 20:32:31;;;;;;;8.82;4.38;;;;;;;7.63;100.00;94143.22;10528128;28;20851;-75
2020/12/31 20:37:31;;;;;;;12.07;5.80;;;;;;;7.44;100.00;94142.97;10524706;28;20016;-75
2020/12/31 20:42:31;;;;;;;32.77;14.67;;;;;;;7.26;100.00;94157.66;10520255;28;20028;-75
2020/12/31 20:47:32;;;;;;;30.42;17.05;;;;;;;7.21;100.00;94157.66;10516028;28;20051;-75
2020/12/31 20:52:33;;;;;;;15.20;7.72;;;;;;;7.12;100.00;94159.25;10518227;28;20039;-75
2020/12/31 20:57:33;;;;;;;24.88;11.80;;;;;;;7.07;100.00;94169.94;10521067;28;20039;-75
2020/12/31 21:02:34;;;;;;;18.55;9.52;;;;;;;6.92;100.00;94160.81;10501441;28;20032;-76
2020/12/31 21:07:34;;;;;;;19.35;8.75;;;;;;;6.89;100.00;94160.53;10519155;28;20030;-74
2020/12/31 21:12:34;;;;;;;20.97;8.33;;;;;;;6.59;100.00;94183.44;10520884;28;20527;-76
2020/12/31 21:17:35;;;;;;;22.27;10.67;;;;;;;6.47;100.00;94170.28;10501044;28;20298;-75
2020/12/31 21:22:35;;;;;;;17.90;8.60;;;;;;;6.41;100.00;94174.00;10489395;28;20281;-77
2020/12/31 21:27:37;;;;;;;22.53;9.83;;;;;;;6.38;100.00;94166.50;10465882;28;20271;-76
2020/12/31 21:32:37;;;;;;;14.07;8.38;;;;;;;6.44;100.00;94168.16;10490985;28;20025;-77
2020/12/31 21:37:38;;;;;;;11.13;5.30;;;;;;;6.49;100.00;94166.31;10490562;28;20021;-76
2020/12/31 21:42:39;;;;;;;30.08;14.80;;;;;;;6.56;100.00;94167.91;10471741;28;20027;-75
2020/12/31 21:47:50;;;;;;;14.57;8.38;;;;;;;6.61;100.00;94176.75;10490392;28;20083;-75
2020/12/31 21:52:51;;;;;;;13.57;7.90;;;;;;;6.65;100.00;94185.03;10490197;28;20031;-76
2020/12/31 21:57:51;;;;;;;20.02;10.00;;;;;;;6.52;100.00;94194.34;10490066;28;20029;-75
2020/12/31 22:02:52;;;;;;;42.93;22.90;;;;;;;6.38;100.00;94190.53;10489469;28;20033;-78
2020/12/31 22:07:53;;;;;;;120.60;53.40;;;;;;;6.33;100.00;94197.47;10465605;28;20108;-75
2020/12/31 22:12:53;;;;;;;111.40;54.47;;;;;;;6.24;100.00;94203.56;10448301;28;20033;-76
2020/12/31 22:17:54;;;;;;;82.07;44.10;;;;;;;6.20;100.00;94197.13;10447297;28;20805;-74
2020/12/31 22:22:54;;;;;;;71.57;35.73;;;;;;;6.16;100.00;94207.50;10448578;28;20080;-74
2020/12/31 22:27:55;;;;;;;153.63;77.13;;;;;;;6.14;100.00;94201.66;10429235;28;20272;-74
2020/12/31 22:32:55;;;;;;;152.20;76.57;;;;;;;6.15;100.00;94200.56;10459496;28;20123;-75
2020/12/31 22:37:55;;;;;;;128.10;58.47;;;;;;;6.13;100.00;94203.50;10489026;28;20033;-75
2020/12/31 22:42:56;;;;;;;105.03;53.97;;;;;;;6.03;100.00;94198.09;10482013;28;20039;-75
2020/12/31 22:47:56;;;;;;;130.25;62.75;;;;;;;5.89;100.00;94197.72;10484265;28;20344;-75
2020/12/31 22:52:57;;;;;;;112.07;57.73;;;;;;;5.84;100.00;94197.69;10488217;28;20075;-75
2020/12/31 22:57:58;;;;;;;112.30;54.25;;;;;;;5.78;100.00;94196.03;10490668;28;20267;-76
2020/12/31 23:02:59;;;;;;;129.45;61.63;;;;;;;5.53;100.00;94192.13;10488240;28;20024;-75
2020/12/31 23:08:00;;;;;;;125.03;60.47;;;;;;;5.36;100.00;94204.75;10486965;28;20029;-75